createdAt,value
2023-04-01T00:00:58.525Z,99184.83
2023-04-01T00:03:28.522Z,99188.31
2023-04-01T00:05:58.983Z,99193.33
2023-04-01T00:08:28.752Z,99191.21
2023-04-01T00:10:58.277Z,99191.63
2023-04-01T00:13:27.442Z,99189.41
2023-04-01T00:15:56.716Z,99190.77
2023-04-01T00:18:25.957Z,99190.71
2023-04-01T00:20:54.619Z,99187.12
2023-04-01T00:23:23.087Z,99187.98
2023-04-01T00:25:51.241Z,99184.76
2023-04-01T00:28:21.163Z,99180.69
2023-04-01T00:30:49.433Z,99184.36
2023-04-01T00:33:18.049Z,99188.90
2023-04-01T00:35:46.424Z,99188.34
2023-04-01T00:38:15.074Z,99187.08
2023-04-01T00:40:45.822Z,99191.16
2023-04-01T00:43:19.479Z,99183.08
2023-04-01T00:45:49.942Z,99184.71
2023-04-01T00:48:19.458Z,99189.21
2023-04-01T00:51:05.915Z,99188.23
2023-04-01T00:53:37.591Z,99190.98
2023-04-01T00:56:12.870Z,99190.33
2023-04-01T00:59:01.096Z,99185.16
2023-04-01T01:01:32.329Z,99187.17
2023-04-01T01:04:01.230Z,99185.99
2023-04-01T01:06:42.333Z,99189.67
2023-04-01T01:09:39.554Z,99186.81
2023-04-01T01:12:27.085Z,99189.69
2023-04-01T01:15:22.550Z,99185.10
2023-04-01T01:18:16.469Z,99185.04
2023-04-01T01:21:06.662Z,99189.08
2023-04-01T01:24:12.498Z,99190.83
2023-04-01T01:26:45.546Z,99191.02
2023-04-01T01:29:34.766Z,99191.17
2023-04-01T01:32:21.039Z,99189.66
2023-04-01T01:35:08.103Z,99197.16
2023-04-01T01:37:37.550Z,99200.16
2023-04-01T01:40:09.876Z,99204.50
2023-04-01T01:42:42.986Z,99214.70
2023-04-01T01:45:14.233Z,99215.95
2023-04-01T01:47:43.845Z,99215.19
2023-04-01T01:50:14.996Z,99211.77
2023-04-01T01:52:43.140Z,99209.42
2023-04-01T01:55:34.314Z,99204.70
2023-04-01T01:58:14.817Z,99207.42
2023-04-01T02:00:49.655Z,99208.48
2023-04-01T02:03:21.196Z,99201.77
2023-04-01T02:05:51.991Z,99204.94
2023-04-01T02:08:31.856Z,99207.17
2023-04-01T02:11:04.004Z,99208.52
2023-04-01T02:13:49.210Z,99206.27
2023-04-01T02:16:40.368Z,99211.16
2023-04-01T02:19:11.527Z,99210.59
2023-04-01T02:21:42.361Z,99210.80
2023-04-01T02:24:16.099Z,99208.46
2023-04-01T02:26:46.348Z,99207.95
2023-04-01T02:29:15.455Z,99214.05
2023-04-01T02:31:44.231Z,99211.78
2023-04-01T02:34:12.931Z,99211.42
2023-04-01T02:36:41.242Z,99210.27
2023-04-01T02:39:09.948Z,99210.04
2023-04-01T02:41:46.133Z,99210.16
2023-04-01T02:44:16.327Z,99203.27
2023-04-01T02:46:45.282Z,99206.96
2023-04-01T02:49:13.432Z,99210.27
2023-04-01T02:51:41.829Z,99210.09
2023-04-01T02:54:10.468Z,99208.73
2023-04-01T02:56:38.953Z,99214.37
2023-04-01T02:59:07.156Z,99216.17
2023-04-01T03:01:35.579Z,99219.67
2023-04-01T03:04:04.626Z,99224.19
2023-04-01T03:06:32.755Z,99228.66
2023-04-01T03:09:00.953Z,99228.80
2023-04-01T03:11:29.070Z,99232.27
2023-04-01T03:13:57.173Z,99230.55
2023-04-01T03:16:25.721Z,99232.95
2023-04-01T03:18:55.255Z,99234.23
2023-04-01T03:21:25.344Z,99234.85
2023-04-01T03:23:53.743Z,99237.82
2023-04-01T03:26:22.613Z,99241.12
2023-04-01T03:28:50.979Z,99242.10
2023-04-01T03:31:20.065Z,99244.82
2023-04-01T03:33:52.108Z,99247.15
2023-04-01T03:36:21.196Z,99247.36
2023-04-01T03:38:49.405Z,99249.15
2023-04-01T03:41:20.694Z,99249.88
2023-04-01T03:43:49.183Z,99245.96
2023-04-01T03:46:21.450Z,99244.02
2023-04-01T03:48:49.907Z,99244.17
2023-04-01T03:51:18.060Z,99242.63
2023-04-01T03:53:46.401Z,99243.19
2023-04-01T03:56:14.701Z,99243.92
2023-04-01T03:58:42.769Z,99244.64
2023-04-01T04:01:23.196Z,99239.40
2023-04-01T04:03:53.925Z,99241.42
2023-04-01T04:06:24.025Z,99238.53
2023-04-01T04:08:52.377Z,99244.89
2023-04-01T04:11:21.678Z,99253.83
2023-04-01T04:13:50.719Z,99258.82
2023-04-01T04:16:19.396Z,99259.40
2023-04-01T04:18:52.609Z,99263.55
2023-04-01T04:21:20.806Z,99264.52
2023-04-01T04:23:48.887Z,99260.88
2023-04-01T04:26:18.734Z,99259.30
2023-04-01T04:28:55.588Z,99262.61
2023-04-01T04:31:25.963Z,99261.94
2023-04-01T04:33:55.099Z,99260.61
2023-04-01T04:36:23.848Z,99263.95
2023-04-01T04:38:52.712Z,99258.99
2023-04-01T04:41:23.234Z,99262.34
2023-04-01T04:43:54.532Z,99266.73
2023-04-01T04:46:23.905Z,99268.66
2023-04-01T04:48:56.330Z,99268.23
2023-04-01T04:51:24.636Z,99270.76
2023-04-01T04:53:53.367Z,99270.65
2023-04-01T04:56:29.760Z,99272.31
2023-04-01T04:59:09.490Z,99272.48
2023-04-01T05:01:44.907Z,99269.60
2023-04-01T05:04:13.208Z,99275.11
2023-04-01T05:06:41.313Z,99275.98
2023-04-01T05:09:09.634Z,99283.16
2023-04-01T05:11:38.099Z,99290.27
2023-04-01T05:14:06.534Z,99290.41
2023-04-01T05:16:35.048Z,99292.65
2023-04-01T05:19:03.225Z,99291.81
2023-04-01T05:21:32.068Z,99293.40
2023-04-01T05:24:00.365Z,99292.36
2023-04-01T05:26:29.194Z,99293.91
2023-04-01T05:28:57.502Z,99295.95
2023-04-01T05:31:25.945Z,99294.14
2023-04-01T05:33:55.233Z,99293.80
2023-04-01T05:36:23.418Z,99297.54
2023-04-01T05:38:51.883Z,99305.27
2023-04-01T05:41:20.885Z,99310.23
2023-04-01T05:43:49.021Z,99316.05
2023-04-01T05:46:52.163Z,99315.80
2023-04-01T05:49:27.596Z,99313.40
2023-04-01T05:51:57.865Z,99313.86
2023-04-01T05:54:26.090Z,99317.12
2023-04-01T05:56:54.161Z,99318.05
2023-04-01T05:59:22.366Z,99324.34
2023-04-01T06:01:50.795Z,99326.77
2023-04-01T06:04:19.407Z,99328.79
2023-04-01T06:06:47.698Z,99334.17
2023-04-01T06:09:19.189Z,99334.30
2023-04-01T06:12:09.238Z,99338.98
2023-04-01T06:15:27.093Z,99339.66
2023-04-01T06:18:24.484Z,99342.06
2023-04-01T06:21:04.534Z,99349.71
2023-04-01T06:23:39.505Z,99356.39
2023-04-01T06:26:26.301Z,99356.38
2023-04-01T06:29:03.876Z,99360.80
2023-04-01T06:31:40.142Z,99363.41
2023-04-01T06:34:08.650Z,99359.63
2023-04-01T06:37:11.826Z,99361.85
2023-04-01T06:39:55.363Z,99364.96
2023-04-01T06:43:07.086Z,99369.05
2023-04-01T06:46:02.944Z,99374.27
2023-04-01T06:49:12.244Z,99375.27
2023-04-01T06:52:20.210Z,99381.98
2023-04-01T06:55:27.902Z,99383.79
2023-04-01T06:58:22.929Z,99387.31
2023-04-01T07:01:09.835Z,99394.84
2023-04-01T07:03:44.300Z,99392.49
2023-04-01T07:06:32.832Z,99399.17
2023-04-01T07:09:06.616Z,99402.49
2023-04-01T07:12:01.718Z,99406.79
2023-04-01T07:14:50.951Z,99410.97
2023-04-01T07:17:24.354Z,99421.31
2023-04-01T07:20:24.146Z,99427.59
2023-04-01T07:22:55.358Z,99426.45
2023-04-01T07:25:46.753Z,99432.76
2023-04-01T07:28:43.767Z,99441.97
2023-04-01T07:31:55.864Z,99444.98
2023-04-01T07:34:28.321Z,99444.39
2023-04-01T07:37:18.882Z,99449.63
2023-04-01T07:39:56.675Z,99443.45
2023-04-01T07:42:49.691Z,99440.36
2023-04-01T07:45:51.214Z,99443.27
2023-04-01T07:48:26.713Z,99451.33
2023-04-01T07:51:22.943Z,99460.59
2023-04-01T07:54:17.903Z,99460.08
2023-04-01T07:57:13.880Z,99460.38
2023-04-01T08:00:12.388Z,99466.73
2023-04-01T08:03:10.597Z,99469.91
2023-04-01T08:05:47.170Z,99472.98
2023-04-01T08:08:19.219Z,99470.73
2023-04-01T08:11:35.318Z,99474.52
2023-04-01T08:14:40.296Z,99482.40
2023-04-01T08:17:56.066Z,99477.73
2023-04-01T08:20:51.503Z,99488.43
2023-04-01T08:23:28.805Z,99495.86
2023-04-01T08:26:07.827Z,99497.52
2023-04-01T08:28:53.966Z,99499.26
2023-04-01T08:31:52.808Z,99494.13
2023-04-01T08:34:35.301Z,99499.65
2023-04-01T08:37:06.482Z,99507.91
2023-04-01T08:39:43.942Z,99508.49
2023-04-01T08:42:46.329Z,99515.02
2023-04-01T08:45:32.010Z,99516.35
2023-04-01T08:48:18.756Z,99519.20
2023-04-01T08:51:10.034Z,99517.27
2023-04-01T08:53:45.954Z,99521.48
2023-04-01T08:56:34.106Z,99522.72
2023-04-01T08:59:24.514Z,99522.23
2023-04-01T09:01:59.658Z,99529.05
2023-04-01T09:05:07.675Z,99530.63
2023-04-01T09:07:57.677Z,99534.28
2023-04-01T09:10:48.151Z,99538.23
2023-04-01T09:13:40.923Z,99536.98
2023-04-01T09:16:13.433Z,99538.36
2023-04-01T09:19:11.070Z,99538.77
2023-04-01T09:22:07.379Z,99542.61
2023-04-01T09:24:47.791Z,99551.59
2023-04-01T09:27:28.456Z,99556.01
2023-04-01T09:30:29.520Z,99560.09
2023-04-01T09:33:36.080Z,99569.02
2023-04-01T09:36:12.635Z,99569.60
2023-04-01T09:39:04.778Z,99572.66
2023-04-01T09:41:40.919Z,99573.38
2023-04-01T09:44:29.645Z,99577.48
2023-04-01T09:47:55.428Z,99586.61
2023-04-01T09:50:36.602Z,99589.96
2023-04-01T09:53:30.756Z,99587.63
2023-04-01T09:56:05.887Z,99590.61
2023-04-01T09:59:17.099Z,99590.49
2023-04-01T10:02:12.818Z,99591.19
2023-04-01T10:04:52.768Z,99591.64
2023-04-01T10:07:32.148Z,99593.55
2023-04-01T10:10:35.898Z,99596.65
2023-04-01T10:13:42.658Z,99604.13
2023-04-01T10:16:26.902Z,99606.92
2023-04-01T10:19:17.052Z,99614.02
2023-04-01T10:22:08.085Z,99620.25
2023-04-01T10:25:17.476Z,99621.40
2023-04-01T10:28:24.235Z,99632.32
2023-04-01T10:31:39.410Z,99628.30
2023-04-01T10:34:56.256Z,99634.95
2023-04-01T10:37:57.348Z,99639.42
2023-04-01T10:40:35.279Z,99639.61
2023-04-01T10:43:36.901Z,99630.84
2023-04-01T10:46:28.798Z,99635.35
2023-04-01T10:49:09.273Z,99639.35
2023-04-01T10:52:06.607Z,99644.11
2023-04-01T10:55:18.150Z,99646.30
2023-04-01T10:58:21.154Z,99655.19
2023-04-01T11:01:36.659Z,99657.45
2023-04-01T11:05:08.783Z,99660.14
2023-04-01T11:08:26.330Z,99661.67
2023-04-01T11:11:24.144Z,99661.55
2023-04-01T11:14:37.357Z,99668.96
2023-04-01T11:17:19.407Z,99675.14
2023-04-01T11:20:29.728Z,99674.65
2023-04-01T11:23:07.933Z,99675.72
2023-04-01T11:25:47.841Z,99678.63
2023-04-01T11:29:05.458Z,99686.81
2023-04-01T11:32:03.648Z,99690.41
2023-04-01T11:35:08.276Z,99693.51
2023-04-01T11:38:05.885Z,99701.70
2023-04-01T11:41:23.305Z,99704.80
2023-04-01T11:44:21.204Z,99706.77
2023-04-01T11:47:53.181Z,99711.48
2023-04-01T11:50:34.450Z,99713.45
2023-04-01T11:53:22.959Z,99715.46
2023-04-01T11:56:06.368Z,99712.84
2023-04-01T11:58:46.754Z,99712.16
2023-04-01T12:01:57.320Z,99717.20
2023-04-01T12:05:03.482Z,99717.77
2023-04-01T12:08:10.665Z,99720.35
2023-04-01T12:10:51.429Z,99721.91
2023-04-01T12:13:50.345Z,99726.08
2023-04-01T12:16:46.071Z,99732.89
2023-04-01T12:19:36.048Z,99730.93
2023-04-01T12:22:18.330Z,99732.05
2023-04-01T12:25:14.072Z,99730.91
2023-04-01T12:27:54.553Z,99738.34
2023-04-01T12:30:35.092Z,99729.02
2023-04-01T12:33:40.483Z,99741.79
2023-04-01T12:36:19.510Z,99749.52
2023-04-01T12:39:33.185Z,99756.06
2023-04-01T12:42:11.638Z,99764.00
2023-04-01T12:44:58.107Z,99767.33
2023-04-01T12:47:56.263Z,99771.65
2023-04-01T12:50:49.359Z,99772.88
2023-04-01T12:53:55.941Z,99783.08
2023-04-01T12:56:48.526Z,99786.13
2023-04-01T12:59:25.696Z,99786.48
2023-04-01T13:02:02.783Z,99788.43
2023-04-01T13:04:30.803Z,99795.30
2023-04-01T13:07:32.358Z,99796.94
2023-04-01T13:10:12.446Z,99800.70
2023-04-01T13:13:26.067Z,99802.30
2023-04-01T13:16:04.103Z,99811.33
2023-04-01T13:19:11.667Z,99815.97
2023-04-01T13:22:12.305Z,99823.31
2023-04-01T13:25:02.162Z,99827.05
2023-04-01T13:27:40.891Z,99836.98
2023-04-01T13:30:20.057Z,99830.43
2023-04-01T13:33:16.613Z,99838.52
2023-04-01T13:36:01.987Z,99837.83
2023-04-01T13:38:30.187Z,99841.04
2023-04-01T13:41:23.911Z,99834.73
2023-04-01T13:44:33.852Z,99839.80
2023-04-01T13:47:16.961Z,99841.70
2023-04-01T13:50:18.232Z,99852.04
2023-04-01T13:52:58.614Z,99852.55
2023-04-01T13:55:39.742Z,99858.19
2023-04-01T13:58:16.981Z,99859.70
2023-04-01T14:01:21.212Z,99859.16
2023-04-01T14:03:58.467Z,99863.96
2023-04-01T14:06:36.708Z,99862.43
2023-04-01T14:09:29.078Z,99869.88
2023-04-01T14:12:19.155Z,99872.60
2023-04-01T14:14:59.349Z,99875.84
2023-04-01T14:18:18.870Z,99877.89
2023-04-01T14:21:23.523Z,99875.65
2023-04-01T14:24:00.719Z,99878.05
2023-04-01T14:27:00.715Z,99886.98
2023-04-01T14:29:50.782Z,99890.92
2023-04-01T14:32:37.837Z,99882.14
2023-04-01T14:35:23.222Z,99891.79
2023-04-01T14:38:26.139Z,99895.55
2023-04-01T14:41:01.490Z,99898.82
2023-04-01T14:44:00.473Z,99896.22
2023-04-01T14:47:10.608Z,99896.24
2023-04-01T14:49:43.107Z,99899.02
2023-04-01T14:52:30.551Z,99896.80
2023-04-01T14:55:00.174Z,99907.36
2023-04-01T14:57:32.940Z,99909.27
2023-04-01T15:00:14.412Z,99907.89
2023-04-01T15:03:09.528Z,99915.45
2023-04-01T15:05:49.256Z,99917.34
2023-04-01T15:08:32.853Z,99925.38
2023-04-01T15:11:08.491Z,99924.33
2023-04-01T15:13:51.796Z,99926.73
2023-04-01T15:16:41.197Z,99933.23
2023-04-01T15:19:43.704Z,99931.84
2023-04-01T15:22:41.062Z,99939.44
2023-04-01T15:25:26.492Z,99938.75
2023-04-01T15:28:23.317Z,99939.45
2023-04-01T15:31:17.023Z,99955.85
2023-04-01T15:33:50.749Z,99954.70
2023-04-01T15:36:52.476Z,99959.42
2023-04-01T15:39:38.902Z,99972.52
2023-04-01T15:42:33.308Z,99979.90
2023-04-01T15:45:17.574Z,99981.09
2023-04-01T15:48:00.399Z,99986.06
2023-04-01T15:53:31.908Z,99994.95
2023-04-01T15:56:18.569Z,99991.20
2023-04-01T15:58:49.632Z,99998.29
2023-04-01T16:01:20.800Z,100006.02
2023-04-01T16:04:15.500Z,100008.77
2023-04-01T16:07:10.941Z,100009.95
2023-04-01T16:10:13.821Z,100015.48
2023-04-01T16:13:00.765Z,100027.50
2023-04-01T16:15:47.500Z,100023.38
2023-04-01T16:18:15.637Z,100029.40
2023-04-01T16:21:02.459Z,100033.70
2023-04-01T16:23:56.775Z,100034.39
2023-04-01T16:26:44.313Z,100041.45
2023-04-01T16:29:27.418Z,100045.80
2023-04-01T16:32:23.831Z,100048.73
2023-04-01T16:35:17.392Z,100048.71
2023-04-01T16:38:33.937Z,100049.39
2023-04-01T16:41:20.700Z,100049.73
2023-04-01T16:43:56.910Z,100048.36
2023-04-01T16:46:32.045Z,100062.29
2023-04-01T16:49:01.413Z,100057.17
2023-04-01T16:51:51.962Z,100071.45
2023-04-01T16:54:37.603Z,100076.95
2023-04-01T16:57:12.078Z,100086.73
2023-04-01T16:59:49.185Z,100090.66
2023-04-01T17:02:23.066Z,100093.37
2023-04-01T17:05:10.646Z,100100.03
2023-04-01T17:07:47.692Z,100101.20
2023-04-01T17:10:38.680Z,100105.66
2023-04-01T17:13:09.540Z,100112.72
2023-04-01T17:15:46.593Z,100118.23
2023-04-01T17:18:46.481Z,100123.69
2023-04-01T17:21:31.959Z,100124.38
2023-04-01T17:24:36.702Z,100125.74
2023-04-01T17:27:04.734Z,100132.98
2023-04-01T17:29:39.437Z,100139.20
2023-04-01T17:32:19.461Z,100141.58
2023-04-01T17:35:14.228Z,100143.11
2023-04-01T17:38:21.158Z,100152.04
2023-04-01T17:41:08.609Z,100152.73
2023-04-01T17:43:53.952Z,100154.94
2023-04-01T17:46:33.663Z,100152.88
2023-04-01T17:49:32.052Z,100165.27
2023-04-01T17:52:20.928Z,100170.95
2023-04-01T17:54:54.825Z,100172.52
2023-04-01T17:57:41.305Z,100176.64
2023-04-01T18:00:42.246Z,100175.48
2023-04-01T18:03:45.860Z,100177.73
2023-04-01T18:07:12.012Z,100184.94
2023-04-01T18:09:40.688Z,100189.56
2023-04-01T18:12:46.870Z,100196.27
2023-04-01T18:15:22.252Z,100203.43
2023-04-01T18:18:09.747Z,100203.92
2023-04-01T18:20:52.177Z,100202.05
2023-04-01T18:23:29.880Z,100205.82
2023-04-01T18:26:21.404Z,100210.81
2023-04-01T18:28:59.715Z,100213.71
2023-04-01T18:31:37.718Z,100225.73
2023-04-01T18:34:35.467Z,100216.95
2023-04-01T18:37:17.775Z,100222.12
2023-04-01T18:40:27.473Z,100228.83
2023-04-01T18:43:10.419Z,100229.68
2023-04-01T18:45:47.999Z,100232.25
2023-04-01T18:48:19.384Z,100238.98
2023-04-01T18:51:29.995Z,100241.21
2023-04-01T18:54:25.333Z,100241.71
2023-04-01T18:57:03.421Z,100248.79
2023-04-01T18:59:43.944Z,100254.11
2023-04-01T19:02:32.362Z,100245.20
2023-04-01T19:05:41.152Z,100254.50
2023-04-01T19:08:24.137Z,100257.08
2023-04-01T19:11:17.022Z,100265.49
2023-04-01T19:14:07.201Z,100266.17
2023-04-01T19:16:52.739Z,100262.02
2023-04-01T19:19:29.967Z,100276.64
2023-04-01T19:22:02.894Z,100280.05
2023-04-01T19:24:46.343Z,100285.20
2023-04-01T19:27:43.288Z,100291.21
2023-04-01T19:30:31.348Z,100297.05
2023-04-01T19:33:08.882Z,100299.10
2023-04-01T19:35:47.006Z,100304.08
2023-04-01T19:38:30.702Z,100302.35
2023-04-01T19:41:14.349Z,100306.84
2023-04-01T19:44:10.579Z,100318.19
2023-04-01T19:46:54.596Z,100321.29
2023-04-01T19:49:25.729Z,100316.81
2023-04-01T19:52:39.215Z,100323.02
2023-04-01T19:55:22.806Z,100324.89
2023-04-01T19:58:27.401Z,100329.36
2023-04-01T20:01:01.341Z,100330.73
2023-04-01T20:03:35.995Z,100337.43
2023-04-01T20:06:22.889Z,100340.02
2023-04-01T20:09:04.306Z,100341.58
2023-04-01T20:12:11.024Z,100349.14
2023-04-01T20:14:51.281Z,100359.65
2023-04-01T20:17:37.849Z,100361.20
2023-04-01T20:20:11.687Z,100357.80
2023-04-01T20:23:07.942Z,100359.70
2023-04-01T20:25:53.621Z,100368.83
2023-04-01T20:28:30.987Z,100377.11
2023-04-01T20:31:26.237Z,100378.85
2023-04-01T20:33:58.756Z,100379.03
2023-04-01T20:36:57.953Z,100380.57
2023-04-01T20:39:35.431Z,100398.11
2023-04-01T20:42:27.895Z,100396.20
2023-04-01T20:45:29.092Z,100393.48
2023-04-01T20:48:09.199Z,100403.63
2023-04-01T20:50:42.376Z,100399.87
2023-04-01T20:53:16.854Z,100400.07
2023-04-01T20:55:47.619Z,100412.96
2023-04-01T20:58:21.547Z,100412.11
2023-04-01T21:01:03.376Z,100408.84
2023-04-01T21:04:03.638Z,100414.52
2023-04-01T21:06:44.125Z,100421.39
2023-04-01T21:09:27.460Z,100426.02
2023-04-01T21:12:20.454Z,100426.53
2023-04-01T21:14:59.939Z,100434.77
2023-04-01T21:17:59.667Z,100435.64
2023-04-01T21:20:58.088Z,100440.27
2023-04-01T21:23:48.608Z,100436.84
2023-04-01T21:26:23.470Z,100435.29
2023-04-01T21:29:17.936Z,100438.56
2023-04-01T21:32:09.071Z,100444.05
2023-04-01T21:34:58.547Z,100446.80
2023-04-01T21:37:53.659Z,100438.91
2023-04-01T21:40:46.798Z,100440.97
2023-04-01T21:43:30.157Z,100452.29
2023-04-01T21:46:45.986Z,100452.28
2023-04-01T21:49:49.563Z,100451.94
2023-04-01T21:52:26.540Z,100457.42
2023-04-01T21:55:00.590Z,100461.89
2023-04-01T21:57:28.803Z,100464.30
2023-04-01T22:00:00.148Z,100469.80
2023-04-01T22:03:06.017Z,100473.74
2023-04-01T22:05:43.255Z,100479.43
2023-04-01T22:08:29.790Z,100478.73
2023-04-01T22:10:59.946Z,100483.20
2023-04-01T22:13:57.798Z,100489.56
2023-04-01T22:16:55.185Z,100485.09
2023-04-01T22:19:39.098Z,100490.23
2023-04-01T22:22:19.709Z,100493.51
2023-04-01T22:24:57.081Z,100494.88
2023-04-01T22:27:26.139Z,100494.70
2023-04-01T22:30:01.434Z,100501.40
2023-04-01T22:32:53.969Z,100501.58
2023-04-01T22:35:54.417Z,100500.55
2023-04-01T22:38:34.489Z,100502.78
2023-04-01T22:41:13.526Z,100507.58
2023-04-01T22:43:47.233Z,100504.85
2023-04-01T22:46:28.819Z,100503.46
2023-04-01T22:49:17.628Z,100501.92
2023-04-01T22:52:23.196Z,100508.79
2023-04-01T22:54:59.396Z,100514.10
2023-04-01T22:57:41.778Z,100513.91
2023-04-01T23:00:12.789Z,100507.91
2023-04-01T23:02:48.078Z,100504.29
2023-04-01T23:05:21.321Z,100509.08
2023-04-01T23:08:14.339Z,100512.49
2023-04-01T23:10:55.238Z,100516.25
2023-04-01T23:13:39.082Z,100516.90
2023-04-01T23:16:09.448Z,100517.38
2023-04-01T23:18:50.558Z,100520.60
2023-04-01T23:21:35.406Z,100520.41
2023-04-01T23:24:20.512Z,100527.64
2023-04-01T23:27:06.701Z,100525.79
2023-04-01T23:29:40.922Z,100517.39
2023-04-01T23:32:35.434Z,100518.64
2023-04-01T23:35:03.666Z,100526.89
2023-04-01T23:37:33.347Z,100524.52
2023-04-01T23:40:02.154Z,100529.85
2023-04-01T23:42:33.772Z,100535.54
2023-04-01T23:45:06.706Z,100538.64
2023-04-01T23:47:39.094Z,100538.83
2023-04-01T23:50:19.414Z,100535.55
2023-04-01T23:52:53.342Z,100538.45
2023-04-01T23:55:42.623Z,100535.20
2023-04-01T23:58:16.487Z,100538.80
